Time;durP1;ratioP1;P1;durP2;ratioP2;P2;SDS_P1;SDS_P2;PMS_P1;PMS_P2;Temp;Humidity;BMP_temperature;BMP_pressure;BME280_temperature;BME280_humidity;BME280_pressure;Samples;Min_cycle;Max_cycle;Signal;HPM_P1;HPM_P2
2023/07/23 00:01:08;;;;;;;14.80;5.75;;;;;;;25.56;59.49;94623.81;5187974;22;20129;-49
2023/07/23 00:03:09;;;;;;;18.00;6.82;;;;;;;25.57;58.69;94628.09;5187045;22;20019;-54
2023/07/23 00:05:11;;;;;;;15.38;6.15;;;;;;;25.61;58.80;94628.41;5187209;22;20028;-51
2023/07/23 00:07:13;;;;;;;18.70;7.13;;;;;;;25.66;58.62;94640.00;5188057;22;20538;-53
2023/07/23 00:09:14;;;;;;;21.48;6.30;;;;;;;25.71;58.51;94644.59;5188130;22;20034;-55
2023/07/23 00:11:16;;;;;;;14.00;6.00;;;;;;;25.77;58.19;94646.25;5187519;22;20051;-54
2023/07/23 00:13:18;;;;;;;13.23;5.97;;;;;;;25.73;58.04;94653.19;5188107;22;20107;-53
2023/07/23 00:15:20;;;;;;;14.48;5.75;;;;;;;25.75;58.34;94646.50;5187520;22;20085;-51
2023/07/23 00:17:22;;;;;;;17.05;5.60;;;;;;;25.77;58.19;94642.75;5186442;22;20132;-49
2023/07/23 00:19:23;;;;;;;20.98;5.85;;;;;;;25.77;58.07;94648.94;5187075;22;20028;-54
2023/07/23 00:21:25;;;;;;;20.20;5.35;;;;;;;25.64;58.19;94650.16;5187297;22;20091;-53
2023/07/23 00:23:27;;;;;;;14.55;6.45;;;;;;;25.45;58.65;94654.28;5187767;22;20027;-56
2023/07/23 00:25:29;;;;;;;17.40;5.93;;;;;;;25.47;58.90;94654.84;5187789;22;20094;-53
2023/07/23 00:27:31;;;;;;;14.60;5.80;;;;;;;25.51;58.96;94658.59;5187309;22;20190;-52
2023/07/23 00:29:33;;;;;;;16.75;5.80;;;;;;;25.53;58.77;94651.13;5187590;22;20469;-51
2023/07/23 00:31:35;;;;;;;15.27;5.47;;;;;;;25.60;58.55;94645.53;5187675;22;20023;-55
2023/07/23 00:33:37;;;;;;;15.85;5.75;;;;;;;25.66;58.63;94657.94;5185401;22;20030;-55
2023/07/23 00:35:39;;;;;;;14.70;6.20;;;;;;;25.64;58.62;94660.91;5186406;22;20031;-54
2023/07/23 00:37:40;;;;;;;17.13;5.95;;;;;;;25.65;58.69;94667.88;5186971;22;20108;-58
2023/07/23 00:39:42;;;;;;;16.58;6.30;;;;;;;25.69;58.56;94668.19;5187171;22;20126;-58
2023/07/23 00:41:44;;;;;;;17.77;6.07;;;;;;;25.70;58.90;94672.47;5187052;22;20020;-59
2023/07/23 00:43:46;;;;;;;13.27;5.80;;;;;;;25.71;58.65;94668.75;5186900;22;20024;-59
2023/07/23 00:45:47;;;;;;;13.75;6.78;;;;;;;25.75;58.96;94675.22;5186944;22;20067;-59
2023/07/23 00:47:49;;;;;;;14.70;6.25;;;;;;;25.78;58.72;94673.88;5186910;22;20075;-59
2023/07/23 00:49:51;;;;;;;11.80;6.03;;;;;;;25.79;58.61;94675.50;5185161;22;20118;-60
2023/07/23 00:51:53;;;;;;;11.18;5.63;;;;;;;25.78;58.67;94674.69;5212487;22;20676;-60
2023/07/23 00:53:55;;;;;;;20.15;6.30;;;;;;;25.75;58.70;94683.25;5213459;22;20242;-58
2023/07/23 00:55:58;;;;;;;15.43;6.38;;;;;;;25.72;58.45;94671.16;5212847;22;20055;-58
2023/07/23 00:58:00;;;;;;;20.88;5.57;;;;;;;25.69;58.47;94679.72;5212182;22;20403;-58
2023/07/23 01:00:05;;;;;;;17.88;6.20;;;;;;;25.64;58.69;94673.47;5211612;22;20093;-60
2023/07/23 01:02:07;;;;;;;11.30;6.03;;;;;;;25.62;58.72;94691.69;5211094;22;20266;-59
2023/07/23 01:04:09;;;;;;;13.75;5.60;;;;;;;25.61;58.69;94688.22;5212134;22;20023;-58
2023/07/23 01:06:11;;;;;;;10.55;5.85;;;;;;;25.59;58.71;94684.97;5212190;22;20055;-58
2023/07/23 01:08:13;;;;;;;12.10;6.37;;;;;;;25.56;58.88;94692.75;5213411;22;20027;-59
2023/07/23 01:10:17;;;;;;;13.90;5.82;;;;;;;25.58;58.85;94701.34;5213208;22;20111;-60
2023/07/23 01:12:19;;;;;;;17.05;6.80;;;;;;;25.60;58.87;94685.78;5186110;22;20023;-60
2023/07/23 01:14:21;;;;;;;18.13;5.80;;;;;;;25.65;58.81;94683.16;5185918;22;20107;-61
2023/07/23 01:16:24;;;;;;;15.68;6.07;;;;;;;25.65;58.75;94689.34;5185773;22;20024;-59
2023/07/23 01:18:26;;;;;;;21.50;6.25;;;;;;;25.68;58.65;94698.75;5211929;22;20114;-60
2023/07/23 01:20:29;;;;;;;16.48;5.70;;;;;;;25.68;58.68;94691.53;5185072;22;20146;-57
2023/07/23 01:22:33;;;;;;;13.48;5.60;;;;;;;25.68;58.85;94702.25;5213563;22;20481;-59
2023/07/23 01:24:35;;;;;;;14.82;5.65;;;;;;;25.64;58.70;94700.31;5211157;22;20098;-60
2023/07/23 01:26:37;;;;;;;10.63;5.63;;;;;;;25.60;58.82;94713.44;5213792;22;20460;-58
2023/07/23 01:28:39;;;;;;;13.32;6.63;;;;;;;25.58;59.03;94712.88;5212899;22;20019;-59
2023/07/23 01:30:41;;;;;;;12.32;5.63;;;;;;;25.51;59.42;94720.28;5213032;22;20374;-58
2023/07/23 01:32:43;;;;;;;16.83;6.50;;;;;;;25.44;59.42;94727.72;5210866;22;20019;-59
2023/07/23 01:34:45;;;;;;;12.48;5.82;;;;;;;25.39;59.69;94735.72;5212468;22;20078;-59
2023/07/23 01:36:47;;;;;;;15.25;6.10;;;;;;;25.33;59.89;94732.97;5211823;22;20050;-59
2023/07/23 01:38:49;;;;;;;17.77;6.38;;;;;;;25.26;60.11;94736.91;5185148;22;20459;-60
2023/07/23 01:40:52;;;;;;;14.88;5.30;;;;;;;25.26;60.10;94743.09;5213129;22;20029;-59
2023/07/23 01:42:54;;;;;;;14.35;6.13;;;;;;;25.29;60.03;94742.56;5185865;22;20024;-60
2023/07/23 01:44:56;;;;;;;20.65;6.90;;;;;;;25.27;60.22;94744.69;5212707;22;20093;-59
2023/07/23 01:46:57;;;;;;;13.13;5.90;;;;;;;25.28;59.95;94750.88;5184667;22;20031;-62
2023/07/23 01:48:59;;;;;;;13.38;5.80;;;;;;;25.18;59.96;94756.88;5212225;22;20034;-59
2023/07/23 01:51:01;;;;;;;21.38;6.50;;;;;;;25.02;54.19;94758.56;5212844;22;20944;-60
2023/07/23 01:53:03;;;;;;;22.27;6.03;;;;;;;25.01;54.31;94766.84;5211197;22;20062;-59
2023/07/23 01:55:05;;;;;;;21.55;6.68;;;;;;;24.94;55.27;94767.84;5213235;22;20124;-59
2023/07/23 01:57:07;;;;;;;22.80;6.95;;;;;;;24.50;54.50;94774.94;5213346;22;20045;-60
2023/07/23 01:59:08;;;;;;;28.83;6.53;;;;;;;24.46;55.23;94785.31;5212540;22;20447;-58
2023/07/23 02:01:11;;;;;;;21.42;6.25;;;;;;;23.90;57.77;94801.25;5212338;22;20026;-59
2023/07/23 02:03:13;;;;;;;21.45;6.75;;;;;;;23.84;58.02;94807.53;5211285;22;20081;-59
2023/07/23 02:05:17;;;;;;;25.38;6.95;;;;;;;23.78;57.77;94797.78;5184507;22;20069;-60
2023/07/23 02:07:19;;;;;;;20.55;6.28;;;;;;;23.66;58.17;94811.19;5213279;22;20027;-56
2023/07/23 02:09:21;;;;;;;21.88;6.47;;;;;;;23.70;58.64;94800.81;5213188;22;20434;-60
2023/07/23 02:11:22;;;;;;;25.38;6.30;;;;;;;23.80;58.05;94809.06;5213046;22;20027;-58
2023/07/23 02:13:24;;;;;;;27.75;6.32;;;;;;;23.83;58.31;94805.09;5211710;22;20027;-58
2023/07/23 02:15:26;;;;;;;23.95;6.75;;;;;;;23.90;58.44;94811.13;5212896;22;20023;-58
2023/07/23 02:17:28;;;;;;;21.88;6.18;;;;;;;24.04;57.98;94817.00;5212062;22;20138;-58
2023/07/23 02:19:29;;;;;;;30.73;6.97;;;;;;;24.16;58.12;94816.94;5212319;22;20119;-59
2023/07/23 02:21:31;;;;;;;20.85;6.25;;;;;;;24.30;57.84;94810.22;5212387;22;20019;-58
2023/07/23 02:23:33;;;;;;;20.83;6.40;;;;;;;24.39;58.47;94815.97;5213142;22;20317;-60
2023/07/23 02:25:39;;;;;;;17.45;6.13;;;;;;;24.43;58.72;94809.09;5213207;22;20448;-58
2023/07/23 02:27:41;;;;;;;23.30;7.10;;;;;;;24.44;59.11;94814.22;5214367;22;20504;-60
2023/07/23 02:29:43;;;;;;;26.20;7.05;;;;;;;24.48;59.03;94815.38;5213983;22;20023;-58
2023/07/23 02:31:45;;;;;;;19.45;6.63;;;;;;;24.46;59.07;94817.47;5187613;22;20027;-57
2023/07/23 02:33:46;;;;;;;22.80;6.72;;;;;;;24.44;59.44;94816.09;5212965;22;20023;-58
2023/07/23 02:35:49;;;;;;;21.95;7.25;;;;;;;24.43;59.89;94807.22;5210973;22;20023;-57
2023/07/23 02:37:51;;;;;;;19.90;6.75;;;;;;;24.40;60.15;94821.09;5213734;22;20460;-61
2023/07/23 02:39:53;;;;;;;16.42;7.47;;;;;;;24.38;60.91;94815.19;5214720;22;20055;-60
2023/07/23 02:41:55;;;;;;;18.58;7.80;;;;;;;24.38;60.80;94811.69;5214432;22;20023;-58
2023/07/23 02:43:57;;;;;;;16.08;7.93;;;;;;;24.28;61.22;94806.97;5214147;22;20357;-60
2023/07/23 02:45:59;;;;;;;17.08;7.95;;;;;;;24.24;61.78;94821.88;5214691;22;20034;-59
2023/07/23 02:48:00;;;;;;;15.70;8.02;;;;;;;24.36;61.41;94824.50;5213221;22;20078;-60
2023/07/23 02:50:03;;;;;;;21.30;8.90;;;;;;;24.37;61.64;94824.28;5212899;22;20064;-59
2023/07/23 02:52:05;;;;;;;23.20;9.25;;;;;;;24.41;61.52;94828.06;5213858;22;20078;-60
2023/07/23 02:54:08;;;;;;;12.75;8.90;;;;;;;24.45;61.77;94831.88;5187357;22;20030;-59
2023/07/23 02:56:10;;;;;;;18.95;10.00;;;;;;;24.39;61.86;94824.81;5213841;22;20095;-59
2023/07/23 02:58:13;;;;;;;19.63;10.10;;;;;;;24.40;62.00;94826.47;5214206;22;20019;-58
2023/07/23 03:00:15;;;;;;;15.73;9.63;;;;;;;24.40;62.31;94831.81;5214046;22;20484;-58
2023/07/23 03:02:17;;;;;;;21.90;10.30;;;;;;;24.38;62.27;94838.47;5186127;22;20024;-59
2023/07/23 03:04:18;;;;;;;15.07;10.48;;;;;;;24.31;62.83;94839.44;5213823;22;20066;-60
2023/07/23 03:06:20;;;;;;;20.73;10.18;;;;;;;24.30;62.93;94835.13;5213365;22;20639;-61
2023/07/23 03:08:22;;;;;;;18.42;10.05;;;;;;;24.24;63.01;94832.59;5214280;22;20022;-58
2023/07/23 03:10:24;;;;;;;19.15;9.88;;;;;;;24.21;63.15;94833.88;5214326;22;20034;-60
2023/07/23 03:12:26;;;;;;;18.23;10.65;;;;;;;24.22;63.26;94829.34;5212823;22;20073;-59
2023/07/23 03:14:27;;;;;;;22.50;10.60;;;;;;;24.23;63.23;94837.13;5214237;22;20023;-58
2023/07/23 03:16:29;;;;;;;19.40;9.93;;;;;;;24.25;63.08;94828.88;5214176;22;20118;-58
2023/07/23 03:18:31;;;;;;;14.43;9.63;;;;;;;24.29;63.06;94824.66;5213179;22;20418;-57
2023/07/23 03:20:33;;;;;;;17.27;10.00;;;;;;;24.26;63.12;94828.66;5213232;22;20027;-59
2023/07/23 03:22:35;;;;;;;16.90;10.13;;;;;;;24.19;63.21;94822.59;5213967;22;20033;-58
2023/07/23 03:24:37;;;;;;;14.18;9.63;;;;;;;24.20;63.11;94820.75;5214121;22;20023;-59
2023/07/23 03:26:39;;;;;;;22.52;10.63;;;;;;;24.28;62.90;94823.03;5214069;22;20031;-58
2023/07/23 03:28:41;;;;;;;13.27;10.00;;;;;;;24.32;62.89;94819.63;5213741;22;20039;-59
2023/07/23 03:30:43;;;;;;;15.20;9.57;;;;;;;24.34;62.67;94816.72;5213922;22;20065;-58
2023/07/23 03:32:45;;;;;;;15.35;9.70;;;;;;;24.24;62.61;94822.72;5212617;22;20133;-58
2023/07/23 03:34:46;;;;;;;17.15;9.98;;;;;;;24.25;62.34;94828.88;5213295;22;20020;-58
2023/07/23 03:36:48;;;;;;;16.95;9.93;;;;;;;24.30;62.28;94824.41;5185220;22;20458;-59
2023/07/23 03:38:50;;;;;;;13.70;9.50;;;;;;;24.31;61.77;94827.91;5213703;22;20023;-61
2023/07/23 03:40:52;;;;;;;21.25;10.27;;;;;;;24.44;61.34;94824.91;5211428;22;20515;-57
2023/07/23 03:42:54;;;;;;;16.48;10.15;;;;;;;24.43;61.21;94831.31;5213907;22;20033;-59
2023/07/23 03:44:56;;;;;;;14.50;10.00;;;;;;;24.47;61.01;94829.78;5186648;22;20046;-59
2023/07/23 03:47:04;;;;;;;17.70;10.50;;;;;;;24.47;60.55;94834.31;5213620;22;20637;-58
2023/07/23 03:49:05;;;;;;;17.65;10.70;;;;;;;24.49;60.15;94841.09;5213713;22;20401;-61
2023/07/23 03:51:07;;;;;;;17.50;10.23;;;;;;;24.56;60.12;94835.56;5212992;22;20019;-58
2023/07/23 03:53:09;;;;;;;17.52;11.13;;;;;;;24.58;59.66;94835.34;5214240;22;20027;-57
2023/07/23 03:55:11;;;;;;;13.95;10.55;;;;;;;24.54;59.65;94840.34;5213948;22;20023;-59
2023/07/23 03:57:13;;;;;;;16.08;11.73;;;;;;;24.60;59.79;94843.94;5212990;22;20269;-58
2023/07/23 03:59:15;;;;;;;14.25;10.60;;;;;;;24.56;59.69;94840.13;5213319;22;20094;-58
2023/07/23 04:01:16;;;;;;;15.65;11.25;;;;;;;24.56;59.40;94840.13;5213783;22;20019;-61
2023/07/23 04:03:18;;;;;;;14.80;11.50;;;;;;;24.59;59.44;94834.28;5212976;22;20379;-59
2023/07/23 04:05:20;;;;;;;16.25;10.32;;;;;;;24.60;59.19;94842.06;5213490;22;20043;-59
2023/07/23 04:07:22;;;;;;;17.52;11.57;;;;;;;24.63;59.21;94840.75;5214566;22;20457;-59
2023/07/23 04:09:24;;;;;;;19.00;11.63;;;;;;;24.71;58.88;94835.00;5213717;22;20030;-56
2023/07/23 04:11:25;;;;;;;22.73;12.00;;;;;;;24.72;58.90;94837.44;5214662;22;20454;-60
2023/07/23 04:13:28;;;;;;;15.30;11.50;;;;;;;24.84;58.59;94840.03;5213702;22;20385;-60
2023/07/23 04:15:31;;;;;;;15.70;11.65;;;;;;;24.85;58.54;94838.19;5213752;22;20028;-58
2023/07/23 04:17:33;;;;;;;22.83;11.93;;;;;;;24.87;58.64;94839.56;5212060;22;20098;-60
2023/07/23 04:19:35;;;;;;;16.73;12.00;;;;;;;24.92;58.57;94838.81;5213350;22;20098;-59
2023/07/23 04:21:37;;;;;;;16.52;11.82;;;;;;;24.98;58.28;94848.56;5213994;22;20477;-60
2023/07/23 04:23:39;;;;;;;13.60;11.30;;;;;;;25.04;58.19;94846.78;5213773;22;20102;-59
2023/07/23 04:25:40;;;;;;;16.73;12.00;;;;;;;25.01;58.39;94839.22;5213806;22;20019;-63
2023/07/23 04:27:42;;;;;;;15.98;11.38;;;;;;;25.03;58.30;94840.59;5214258;22;20019;-59
2023/07/23 04:29:44;;;;;;;14.63;11.73;;;;;;;25.04;58.25;94846.78;5214148;22;20361;-60
2023/07/23 04:31:46;;;;;;;17.33;11.60;;;;;;;25.05;58.35;94849.19;5213990;22;20061;-60
2023/07/23 04:33:48;;;;;;;17.98;12.75;;;;;;;25.13;58.24;94850.66;5211807;22;20397;-61
2023/07/23 04:35:50;;;;;;;15.13;12.10;;;;;;;25.10;58.32;94845.75;5213894;22;20054;-60
2023/07/23 04:37:51;;;;;;;17.55;13.18;;;;;;;25.07;58.27;94847.06;5213556;22;20099;-60
2023/07/23 04:39:53;;;;;;;16.85;12.05;;;;;;;25.14;57.84;94850.41;5213220;22;20110;-60
2023/07/23 04:41:55;;;;;;;18.88;12.00;;;;;;;25.11;57.49;94856.25;5213811;22;20102;-59
2023/07/23 04:43:58;;;;;;;16.55;13.32;;;;;;;25.20;57.34;94845.94;5213933;22;20029;-61
2023/07/23 04:46:00;;;;;;;15.10;13.40;;;;;;;25.33;57.16;94850.16;5214003;22;20027;-61
2023/07/23 04:48:01;;;;;;;18.33;12.52;;;;;;;25.25;56.65;94848.72;5212315;22;20672;-60
2023/07/23 04:50:05;;;;;;;17.02;12.30;;;;;;;25.39;56.43;94853.72;5213101;22;20031;-61
2023/07/23 04:52:11;;;;;;;16.00;11.65;;;;;;;25.43;56.27;94844.94;5214244;22;20031;-59
2023/07/23 04:54:13;;;;;;;17.13;11.98;;;;;;;25.51;55.79;94846.34;5214103;22;20062;-60
2023/07/23 04:56:14;;;;;;;15.07;11.68;;;;;;;25.57;55.58;94844.56;5213884;22;20019;-59
2023/07/23 04:58:16;;;;;;;15.20;12.60;;;;;;;25.60;55.59;94844.03;5213731;22;20026;-60
2023/07/23 05:00:18;;;;;;;16.90;12.00;;;;;;;25.50;55.43;94850.09;5214145;22;20507;-58
2023/07/23 05:02:20;;;;;;;16.10;11.77;;;;;;;25.63;55.08;94849.72;5213523;22;20031;-61
2023/07/23 05:04:21;;;;;;;12.93;11.15;;;;;;;25.75;54.04;94847.75;5213355;22;20034;-58
2023/07/23 05:06:23;;;;;;;15.27;10.93;;;;;;;25.63;54.24;94856.97;5212883;22;20034;-60
2023/07/23 05:08:27;;;;;;;16.05;11.20;;;;;;;25.26;55.07;94849.53;5214419;22;20350;-60
2023/07/23 05:10:29;;;;;;;15.93;11.02;;;;;;;25.47;54.90;94861.34;5213745;22;20167;-58
2023/07/23 05:12:31;;;;;;;13.68;10.38;;;;;;;25.58;54.66;94852.34;5212600;22;20045;-62
2023/07/23 05:14:34;;;;;;;14.48;10.45;;;;;;;25.53;55.02;94853.13;5213642;22;20343;-59
2023/07/23 05:16:36;;;;;;;;;;;;;;;25.22;55.56;94859.13;5214974;22;20402;-61
2023/07/23 05:18:38;;;;;;;16.05;11.30;;;;;;;25.24;55.35;94847.09;5212839;22;20348;-60
2023/07/23 05:20:40;;;;;;;15.65;9.65;;;;;;;25.42;54.18;94853.22;5212714;22;20051;-57
2023/07/23 05:22:41;;;;;;;15.35;10.00;;;;;;;25.38;55.44;94852.09;5214566;22;20019;-59
2023/07/23 05:24:43;;;;;;;17.00;10.50;;;;;;;25.41;54.85;94856.97;5213781;22;20098;-61
2023/07/23 05:26:45;;;;;;;16.85;10.32;;;;;;;25.38;55.12;94846.72;5214162;22;20023;-61
2023/07/23 05:28:46;;;;;;;11.52;8.63;;;;;;;25.30;54.35;94854.13;5213508;22;20490;-60
2023/07/23 05:30:49;;;;;;;17.13;9.93;;;;;;;25.17;56.18;94865.19;5213457;22;20466;-60
2023/07/23 05:32:51;;;;;;;14.77;10.57;;;;;;;25.23;56.81;94861.56;5212283;22;20026;-59
2023/07/23 05:34:53;;;;;;;12.18;10.00;;;;;;;25.20;56.98;94856.66;5212210;22;20031;-60
2023/07/23 05:36:55;;;;;;;16.02;10.85;;;;;;;25.10;57.80;94864.53;5213216;22;20027;-60
2023/07/23 05:38:57;;;;;;;15.35;10.30;;;;;;;25.16;57.78;94866.22;5213756;22;20016;-61
2023/07/23 05:40:59;;;;;;;13.80;10.65;;;;;;;25.15;58.14;94864.63;5211840;22;20098;-60
2023/07/23 05:43:06;;;;;;;15.20;10.30;;;;;;;25.05;58.35;94864.47;5213265;22;20023;-60
2023/07/23 05:45:08;;;;;;;17.02;10.80;;;;;;;25.05;58.41;94862.59;5213244;22;20349;-59
2023/07/23 05:47:10;;;;;;;14.70;10.48;;;;;;;25.34;58.13;94862.50;5212541;22;20038;-60
2023/07/23 05:49:12;;;;;;;14.05;11.07;;;;;;;25.50;58.04;94858.16;5212772;22;20058;-60
2023/07/23 05:51:14;;;;;;;17.95;10.80;;;;;;;25.49;58.43;94862.72;5213331;22;20092;-60
2023/07/23 05:53:16;;;;;;;14.82;10.95;;;;;;;25.53;58.25;94865.69;5213611;22;20103;-61
2023/07/23 05:55:18;;;;;;;16.70;10.60;;;;;;;25.50;58.77;94869.69;5213414;22;20098;-59
2023/07/23 05:57:20;;;;;;;18.38;10.57;;;;;;;25.52;58.42;94869.44;5213962;22;20412;-59
2023/07/23 05:59:22;;;;;;;17.25;10.20;;;;;;;25.26;59.28;94874.47;5212786;22;20121;-62
2023/07/23 06:01:24;;;;;;;17.67;11.90;;;;;;;25.11;60.20;94875.00;5213732;22;20019;-61
2023/07/23 06:03:27;;;;;;;17.98;10.30;;;;;;;25.16;60.12;94870.78;5185475;22;20648;-60
2023/07/23 06:05:44;;;;;;;14.75;10.63;;;;;;;24.90;60.91;94865.84;5213364;22;20031;-59
2023/07/23 06:07:46;;;;;;;18.02;12.27;;;;;;;25.02;61.09;94864.97;5213103;22;20027;-58
2023/07/23 06:09:48;;;;;;;18.00;10.82;;;;;;;25.26;60.35;94863.72;5213991;22;20019;-60
2023/07/23 06:11:51;;;;;;;19.83;10.68;;;;;;;25.31;60.32;94861.13;5213937;22;20023;-60
2023/07/23 06:13:53;;;;;;;16.13;10.73;;;;;;;25.22;59.77;94870.66;5213512;22;20042;-60
2023/07/23 06:15:55;;;;;;;15.23;11.13;;;;;;;25.34;59.16;94860.63;5214204;22;20649;-63
2023/07/23 06:17:57;;;;;;;15.07;10.70;;;;;;;25.28;58.76;94869.66;5212886;22;20033;-62
2023/07/23 06:19:59;;;;;;;16.92;10.20;;;;;;;25.38;58.67;94865.50;5213368;22;20019;-60
2023/07/23 06:22:00;;;;;;;16.83;10.15;;;;;;;25.56;58.65;94859.03;5213858;22;20033;-59
2023/07/23 06:24:02;;;;;;;15.82;9.77;;;;;;;25.64;57.92;94854.06;5213541;22;20051;-60
2023/07/23 06:26:04;;;;;;;14.32;10.48;;;;;;;25.69;58.41;94864.84;5213804;22;20027;-60
2023/07/23 06:28:06;;;;;;;13.60;9.70;;;;;;;25.59;58.12;94864.69;5213671;22;20046;-59
2023/07/23 06:30:08;;;;;;;14.32;10.30;;;;;;;25.28;59.54;94860.81;5212642;22;20486;-60
2023/07/23 06:32:10;;;;;;;17.50;10.60;;;;;;;25.28;59.50;94858.13;5211315;22;20024;-63
2023/07/23 06:34:12;;;;;;;16.27;10.60;;;;;;;25.44;59.36;94862.63;5212965;22;20026;-58
2023/07/23 06:36:14;;;;;;;16.88;9.85;;;;;;;25.66;56.89;94862.66;5212583;22;20028;-59
2023/07/23 06:38:16;;;;;;;10.30;8.75;;;;;;;25.81;55.50;94862.00;5213160;22;20038;-60
2023/07/23 06:40:18;;;;;;;13.77;8.23;;;;;;;25.82;54.06;94860.97;5213167;22;20495;-62
2023/07/23 06:42:21;;;;;;;12.90;8.48;;;;;;;26.07;53.89;94862.31;5213420;22;20442;-62
2023/07/23 06:44:22;;;;;;;10.80;8.27;;;;;;;26.25;52.67;94861.19;5213728;22;20057;-61
2023/07/23 06:46:24;;;;;;;11.35;6.82;;;;;;;26.22;50.62;94856.31;5214008;22;20102;-61
2023/07/23 06:48:28;;;;;;;12.05;6.90;;;;;;;26.05;50.62;94864.44;5212408;22;20070;-62
2023/07/23 06:50:31;;;;;;;11.50;7.50;;;;;;;26.21;50.48;94860.88;5184496;22;20031;-58
2023/07/23 06:52:33;;;;;;;9.10;6.55;;;;;;;26.21;49.78;94863.56;5213123;22;20023;-60
2023/07/23 06:54:40;;;;;;;11.27;7.30;;;;;;;26.40;49.44;94858.66;5213837;22;20020;-61
2023/07/23 06:56:43;;;;;;;11.02;6.80;;;;;;;26.58;48.81;94854.00;5213952;22;20023;-61
2023/07/23 06:58:46;;;;;;;9.10;6.40;;;;;;;26.74;48.27;94853.06;5212732;22;20050;-60
2023/07/23 07:00:48;;;;;;;;;;;;;;;26.81;47.95;94856.34;5214527;22;20030;-62
2023/07/23 07:02:50;;;;;;;10.40;6.43;;;;;;;26.93;47.59;94851.59;5212503;22;19960;-60
2023/07/23 07:04:52;;;;;;;9.60;6.95;;;;;;;27.11;47.80;94854.94;5212365;22;20098;-57
2023/07/23 07:06:54;;;;;;;9.35;6.80;;;;;;;26.92;48.28;94862.59;5213820;22;20377;-62
2023/07/23 07:08:56;;;;;;;15.23;6.82;;;;;;;26.49;49.57;94875.91;5213256;22;20066;-60
2023/07/23 07:10:58;;;;;;;10.07;6.47;;;;;;;26.18;49.80;94868.63;5214611;22;20030;-58
2023/07/23 07:13:00;;;;;;;9.48;6.40;;;;;;;26.15;49.71;94868.06;5214974;22;20023;-55
2023/07/23 07:15:02;;;;;;;12.57;6.38;;;;;;;26.39;49.71;94867.75;5215339;22;20047;-55
2023/07/23 07:17:05;;;;;;;11.25;6.38;;;;;;;26.66;49.17;94880.41;5214219;22;20019;-57
2023/07/23 07:19:07;;;;;;;9.52;6.22;;;;;;;26.59;48.75;94871.72;5214133;22;20103;-57
2023/07/23 07:21:09;;;;;;;8.85;6.10;;;;;;;26.53;47.98;94868.97;5213987;22;20054;-57
2023/07/23 07:23:10;;;;;;;14.48;6.20;;;;;;;26.77;47.27;94874.06;5215057;22;20045;-56
2023/07/23 07:25:13;;;;;;;9.38;6.15;;;;;;;26.81;45.14;94877.03;5215092;22;20023;-59
2023/07/23 07:27:16;;;;;;;9.88;5.93;;;;;;;27.03;45.15;94869.69;5214761;22;20030;-58
2023/07/23 07:29:18;;;;;;;11.05;6.07;;;;;;;26.87;45.44;94867.97;5214708;22;20515;-59
2023/07/23 07:31:20;;;;;;;9.00;5.68;;;;;;;26.70;45.33;94868.88;5214244;22;20361;-56
2023/07/23 07:33:23;;;;;;;10.77;6.23;;;;;;;26.63;45.61;94865.63;5214157;22;20054;-54
2023/07/23 07:35:25;;;;;;;16.45;8.73;;;;;;;26.80;45.69;94878.09;5212909;22;20107;-58
2023/07/23 07:37:27;;;;;;;12.18;8.27;;;;;;;26.79;45.38;94863.84;5215057;22;20023;-59
2023/07/23 07:39:32;;;;;;;10.07;7.50;;;;;;;27.10;45.17;94866.75;5215444;22;20030;-58
2023/07/23 07:41:34;;;;;;;12.80;8.07;;;;;;;27.22;44.65;94869.31;5187408;22;20026;-59
2023/07/23 07:43:37;;;;;;;9.18;7.00;;;;;;;27.32;44.42;94872.88;5214588;22;20401;-60
2023/07/23 07:45:38;;;;;;;13.52;6.75;;;;;;;27.26;44.51;94871.22;5215100;22;20031;-60
2023/07/23 07:47:40;;;;;;;9.25;6.57;;;;;;;27.33;42.60;94877.16;5214066;22;20031;-60
2023/07/23 07:49:43;;;;;;;10.23;5.82;;;;;;;27.41;42.07;94861.63;5214220;22;20180;-55
2023/07/23 07:51:47;;;;;;;12.02;6.20;;;;;;;27.63;41.57;94877.59;5214108;22;20023;-58
2023/07/23 07:53:50;;;;;;;10.05;6.13;;;;;;;27.78;40.68;94862.31;5214183;22;20694;-57
2023/07/23 07:55:53;;;;;;;8.02;5.70;;;;;;;27.98;40.48;94856.25;5214765;22;20031;-57
2023/07/23 07:57:55;;;;;;;9.63;6.38;;;;;;;27.72;42.57;94859.88;5187496;22;20027;-58
2023/07/23 08:00:03;;;;;;;9.30;6.40;;;;;;;27.57;43.12;94855.22;5214615;22;20054;-58
2023/07/23 08:02:06;;;;;;;10.80;6.95;;;;;;;27.72;42.94;94860.69;5213780;22;20102;-59
2023/07/23 08:04:09;;;;;;;9.30;6.13;;;;;;;27.48;42.18;94852.22;5214360;22;20031;-59
2023/07/23 08:06:13;;;;;;;10.50;6.15;;;;;;;27.46;42.42;94856.25;5213565;22;20488;-56
2023/07/23 08:08:15;;;;;;;13.35;6.63;;;;;;;27.22;41.71;94874.69;5214967;22;20334;-54
2023/07/23 08:10:17;;;;;;;10.20;6.22;;;;;;;27.19;41.85;94859.84;5214748;22;20023;-56
2023/07/23 08:12:21;;;;;;;10.55;5.90;;;;;;;27.36;42.26;94847.06;5213749;22;20019;-57
2023/07/23 08:14:23;;;;;;;10.05;5.63;;;;;;;27.11;42.45;94863.03;5213867;22;20054;-59
2023/07/23 08:16:25;;;;;;;10.80;6.07;;;;;;;27.30;42.82;94863.44;5162207;22;20642;-56
2023/07/23 08:18:28;;;;;;;10.60;6.18;;;;;;;27.57;42.43;94860.63;5212965;22;20329;-55
2023/07/23 08:20:32;;;;;;;;;;;;;;;27.76;42.31;94855.59;5214003;22;20019;-67
2023/07/23 08:22:34;;;;;;;10.43;6.15;;;;;;;27.60;41.65;94854.72;5213954;22;20249;-55
2023/07/23 08:24:36;;;;;;;9.60;5.38;;;;;;;27.66;41.25;94869.00;5186540;22;20027;-57
2023/07/23 08:26:39;;;;;;;13.23;5.50;;;;;;;27.87;40.69;94859.97;5214902;22;20023;-61
2023/07/23 08:28:44;;;;;;;;;;;;;;;27.91;40.44;94865.63;5187347;22;20054;-60
2023/07/23 08:30:45;;;;;;;;;;;;;;;27.78;40.92;94862.31;5214316;22;19964;-57
2023/07/23 08:32:48;;;;;;;8.75;5.70;;;;;;;27.85;40.35;94862.09;5213737;22;19993;-57
2023/07/23 08:34:50;;;;;;;7.93;5.72;;;;;;;28.01;40.91;94859.47;5213077;22;20457;-61
2023/07/23 08:36:54;;;;;;;9.38;6.00;;;;;;;28.24;40.72;94863.56;5187269;22;20027;-56
2023/07/23 08:38:56;;;;;;;8.90;5.67;;;;;;;27.51;40.30;94880.50;5214670;22;20473;-55
2023/07/23 08:41:02;;;;;;;9.32;5.70;;;;;;;27.52;40.39;94847.16;5214059;22;20038;-51
2023/07/23 08:43:26;;;;;;;9.60;5.65;;;;;;;27.77;40.62;94855.34;5210333;22;20377;-52
2023/07/23 08:46:07;;;;;;;10.90;5.45;;;;;;;27.67;40.55;94860.66;5215110;22;20019;-55
2023/07/23 08:48:19;;;;;;;9.50;5.75;;;;;;;27.77;40.55;94849.94;5213781;22;20043;-53
2023/07/23 08:50:21;;;;;;;10.30;6.30;;;;;;;27.78;41.29;94851.56;5212862;22;20019;-57
2023/07/23 08:52:23;;;;;;;10.15;6.50;;;;;;;27.78;40.28;94853.44;5187428;22;20020;-58
2023/07/23 08:54:26;;;;;;;12.85;6.10;;;;;;;27.70;40.52;94846.66;5214700;22;20023;-53
2023/07/23 08:56:27;;;;;;;8.32;6.20;;;;;;;27.94;40.52;94849.78;5187393;22;20027;-54
2023/07/23 08:58:29;;;;;;;8.65;6.13;;;;;;;27.73;41.26;94858.81;5187149;22;20062;-56
2023/07/23 09:00:31;;;;;;;8.98;6.70;;;;;;;28.05;40.91;94855.16;5214634;22;20031;-55
2023/07/23 09:02:33;;;;;;;11.88;7.30;;;;;;;28.09;40.70;94861.66;5186307;22;20024;-53
2023/07/23 09:04:35;;;;;;;9.00;6.38;;;;;;;28.15;40.51;94855.22;5213281;22;20089;-52
2023/07/23 09:06:37;;;;;;;14.27;7.30;;;;;;;27.93;40.70;94837.38;5214107;22;20027;-53
2023/07/23 09:08:39;;;;;;;10.05;6.90;;;;;;;28.00;40.38;94847.09;5187328;22;20023;-53
2023/07/23 09:10:40;;;;;;;10.38;6.43;;;;;;;28.05;41.22;94850.63;5214386;22;20022;-52
2023/07/23 09:12:42;;;;;;;10.52;5.97;;;;;;;28.16;39.92;94854.94;5213200;22;20466;-59
2023/07/23 09:14:44;;;;;;;11.55;6.90;;;;;;;28.19;40.49;94843.63;5214291;22;20020;-53
2023/07/23 09:16:48;;;;;;;12.18;7.07;;;;;;;28.30;40.52;94857.13;5213362;22;20077;-55
2023/07/23 09:18:50;;;;;;;9.43;6.18;;;;;;;28.44;40.53;94866.31;5213051;22;20121;-52
2023/07/23 09:20:52;;;;;;;9.80;6.32;;;;;;;28.37;39.71;94869.28;5213166;22;20404;-56
2023/07/23 09:22:54;;;;;;;9.80;6.20;;;;;;;28.35;39.62;94862.50;5213908;22;20023;-55
2023/07/23 09:25:00;;;;;;;12.48;6.85;;;;;;;28.07;40.51;94861.94;5214119;22;20376;-57
2023/07/23 09:27:02;;;;;;;10.73;7.90;;;;;;;28.18;39.89;94852.00;5213099;22;20074;-61
2023/07/23 09:29:08;;;;;;;12.88;8.85;;;;;;;28.50;39.69;94857.19;5214368;22;20023;-59